sensor_id;sensor_type;location;lat;lon;timestamp;P1;durP1;ratioP1;P2;durP2;ratioP2
67997;SDS011;54773;53.388;-1.504;2022-09-28T00:01:54;3.78;;;0.75;;
67997;SDS011;54773;53.388;-1.504;2022-09-28T00:04:20;4.65;;;1.30;;
67997;SDS011;54773;53.388;-1.504;2022-09-28T00:06:46;2.33;;;0.70;;
67997;SDS011;54773;53.388;-1.504;2022-09-28T00:09:15;3.10;;;0.75;;
67997;SDS011;54773;53.388;-1.504;2022-09-28T00:11:41;2.08;;;0.85;;
67997;SDS011;54773;53.388;-1.504;2022-09-28T00:14:08;3.65;;;0.75;;
67997;SDS011;54773;53.388;-1.504;2022-09-28T00:16:37;2.85;;;0.80;;
67997;SDS011;54773;53.388;-1.504;2022-09-28T00:19:07;5.00;;;0.65;;
67997;SDS011;54773;53.388;-1.504;2022-09-28T00:21:35;4.63;;;0.70;;
67997;SDS011;54773;53.388;-1.504;2022-09-28T00:24:02;3.97;;;0.90;;
67997;SDS011;54773;53.388;-1.504;2022-09-28T00:26:50;1.88;;;0.60;;
67997;SDS011;54773;53.388;-1.504;2022-09-28T00:29:23;2.38;;;0.70;;
67997;SDS011;54773;53.388;-1.504;2022-09-28T00:31:53;3.05;;;0.68;;
67997;SDS011;54773;53.388;-1.504;2022-09-28T00:36:57;1.35;;;0.52;;
67997;SDS011;54773;53.388;-1.504;2022-09-28T00:39:42;2.65;;;0.80;;
67997;SDS011;54773;53.388;-1.504;2022-09-28T00:42:12;2.22;;;0.88;;
67997;SDS011;54773;53.388;-1.504;2022-09-28T00:44:57;2.75;;;0.63;;
67997;SDS011;54773;53.388;-1.504;2022-09-28T00:47:43;2.25;;;0.70;;
67997;SDS011;54773;53.388;-1.504;2022-09-28T00:50:29;2.78;;;0.60;;
67997;SDS011;54773;53.388;-1.504;2022-09-28T00:53:13;2.72;;;0.70;;
67997;SDS011;54773;53.388;-1.504;2022-09-28T00:55:49;3.72;;;0.70;;
67997;SDS011;54773;53.388;-1.504;2022-09-28T01:00:44;4.10;;;0.95;;
67997;SDS011;54773;53.388;-1.504;2022-09-28T01:03:10;3.15;;;0.70;;
67997;SDS011;54773;53.388;-1.504;2022-09-28T01:05:37;3.72;;;0.60;;
67997;SDS011;54773;53.388;-1.504;2022-09-28T01:08:03;1.55;;;1.08;;
67997;SDS011;54773;53.388;-1.504;2022-09-28T01:10:30;3.60;;;0.82;;
67997;SDS011;54773;53.388;-1.504;2022-09-28T01:12:56;1.80;;;0.73;;
67997;SDS011;54773;53.388;-1.504;2022-09-28T01:15:23;1.95;;;0.65;;
67997;SDS011;54773;53.388;-1.504;2022-09-28T01:18:06;3.58;;;0.70;;
67997;SDS011;54773;53.388;-1.504;2022-09-28T01:23:24;1.25;;;0.60;;
67997;SDS011;54773;53.388;-1.504;2022-09-28T01:26:18;1.45;;;0.70;;
67997;SDS011;54773;53.388;-1.504;2022-09-28T01:28:51;1.77;;;0.60;;
67997;SDS011;54773;53.388;-1.504;2022-09-28T01:31:22;1.65;;;0.90;;
67997;SDS011;54773;53.388;-1.504;2022-09-28T01:33:55;4.13;;;0.82;;
67997;SDS011;54773;53.388;-1.504;2022-09-28T01:36:31;4.13;;;0.75;;
67997;SDS011;54773;53.388;-1.504;2022-09-28T01:39:00;2.53;;;0.80;;
67997;SDS011;54773;53.388;-1.504;2022-09-28T01:41:28;2.78;;;0.63;;
67997;SDS011;54773;53.388;-1.504;2022-09-28T01:43:55;3.10;;;0.70;;
67997;SDS011;54773;53.388;-1.504;2022-09-28T01:46:23;0.63;;;0.43;;
67997;SDS011;54773;53.388;-1.504;2022-09-28T01:48:57;3.35;;;0.70;;
67997;SDS011;54773;53.388;-1.504;2022-09-28T01:53:56;2.35;;;0.55;;
67997;SDS011;54773;53.388;-1.504;2022-09-28T01:56:47;2.22;;;0.57;;
67997;SDS011;54773;53.388;-1.504;2022-09-28T01:59:13;1.50;;;0.88;;
67997;SDS011;54773;53.388;-1.504;2022-09-28T02:04:16;2.65;;;0.77;;
67997;SDS011;54773;53.388;-1.504;2022-09-28T02:07:09;4.80;;;0.70;;
67997;SDS011;54773;53.388;-1.504;2022-09-28T02:09:41;6.10;;;0.80;;
67997;SDS011;54773;53.388;-1.504;2022-09-28T02:12:11;0.88;;;0.50;;
67997;SDS011;54773;53.388;-1.504;2022-09-28T02:14:40;2.45;;;0.75;;
67997;SDS011;54773;53.388;-1.504;2022-09-28T02:17:08;4.45;;;0.60;;
67997;SDS011;54773;53.388;-1.504;2022-09-28T02:19:34;2.50;;;0.68;;
67997;SDS011;54773;53.388;-1.504;2022-09-28T02:25:09;2.30;;;0.70;;
67997;SDS011;54773;53.388;-1.504;2022-09-28T02:30:22;1.80;;;0.70;;
67997;SDS011;54773;53.388;-1.504;2022-09-28T02:32:51;3.33;;;0.73;;
67997;SDS011;54773;53.388;-1.504;2022-09-28T02:35:20;1.83;;;0.60;;
67997;SDS011;54773;53.388;-1.504;2022-09-28T02:37:50;3.92;;;0.70;;
67997;SDS011;54773;53.388;-1.504;2022-09-28T02:40:16;2.15;;;0.50;;
67997;SDS011;54773;53.388;-1.504;2022-09-28T02:53:52;2.17;;;0.90;;
67997;SDS011;54773;53.388;-1.504;2022-09-28T02:56:50;2.40;;;0.77;;
67997;SDS011;54773;53.388;-1.504;2022-09-28T02:59:36;1.65;;;0.68;;
67997;SDS011;54773;53.388;-1.504;2022-09-28T03:07:39;2.58;;;0.80;;
67997;SDS011;54773;53.388;-1.504;2022-09-28T03:10:14;2.05;;;0.70;;
67997;SDS011;54773;53.388;-1.504;2022-09-28T03:12:43;2.95;;;0.73;;
67997;SDS011;54773;53.388;-1.504;2022-09-28T03:15:12;2.40;;;0.70;;
67997;SDS011;54773;53.388;-1.504;2022-09-28T03:17:58;1.50;;;0.60;;
67997;SDS011;54773;53.388;-1.504;2022-09-28T03:20:25;1.73;;;0.60;;
67997;SDS011;54773;53.388;-1.504;2022-09-28T03:22:51;2.33;;;0.80;;
67997;SDS011;54773;53.388;-1.504;2022-09-28T03:25:17;2.03;;;0.80;;
67997;SDS011;54773;53.388;-1.504;2022-09-28T03:27:42;2.63;;;0.80;;
67997;SDS011;54773;53.388;-1.504;2022-09-28T03:30:11;1.63;;;0.80;;
67997;SDS011;54773;53.388;-1.504;2022-09-28T03:32:37;4.00;;;0.90;;
67997;SDS011;54773;53.388;-1.504;2022-09-28T03:35:04;2.67;;;0.80;;
67997;SDS011;54773;53.388;-1.504;2022-09-28T03:37:31;4.18;;;0.90;;
67997;SDS011;54773;53.388;-1.504;2022-09-28T03:39:57;3.97;;;0.85;;
67997;SDS011;54773;53.388;-1.504;2022-09-28T03:42:23;3.03;;;1.05;;
67997;SDS011;54773;53.388;-1.504;2022-09-28T03:44:48;2.80;;;1.00;;
67997;SDS011;54773;53.388;-1.504;2022-09-28T03:47:14;1.98;;;0.75;;
67997;SDS011;54773;53.388;-1.504;2022-09-28T03:49:41;2.50;;;0.90;;
67997;SDS011;54773;53.388;-1.504;2022-09-28T03:52:08;4.13;;;0.95;;
67997;SDS011;54773;53.388;-1.504;2022-09-28T03:54:33;4.28;;;0.82;;
67997;SDS011;54773;53.388;-1.504;2022-09-28T03:56:59;1.63;;;0.70;;
67997;SDS011;54773;53.388;-1.504;2022-09-28T03:59:24;2.15;;;0.80;;
67997;SDS011;54773;53.388;-1.504;2022-09-28T04:01:50;2.05;;;0.95;;
67997;SDS011;54773;53.388;-1.504;2022-09-28T04:04:16;6.85;;;0.90;;
67997;SDS011;54773;53.388;-1.504;2022-09-28T04:06:42;3.33;;;1.05;;
67997;SDS011;54773;53.388;-1.504;2022-09-28T04:09:08;1.55;;;0.77;;
67997;SDS011;54773;53.388;-1.504;2022-09-28T04:11:34;3.00;;;0.90;;
67997;SDS011;54773;53.388;-1.504;2022-09-28T04:14:00;4.65;;;1.08;;
67997;SDS011;54773;53.388;-1.504;2022-09-28T04:16:26;1.88;;;0.80;;
67997;SDS011;54773;53.388;-1.504;2022-09-28T04:18:52;2.38;;;0.90;;
67997;SDS011;54773;53.388;-1.504;2022-09-28T04:21:21;2.22;;;0.80;;
67997;SDS011;54773;53.388;-1.504;2022-09-28T04:23:47;2.53;;;0.88;;
67997;SDS011;54773;53.388;-1.504;2022-09-28T04:26:17;1.83;;;0.90;;
67997;SDS011;54773;53.388;-1.504;2022-09-28T04:28:44;3.00;;;0.80;;
67997;SDS011;54773;53.388;-1.504;2022-09-28T04:31:29;3.45;;;0.98;;
67997;SDS011;54773;53.388;-1.504;2022-09-28T04:33:55;3.05;;;1.45;;
67997;SDS011;54773;53.388;-1.504;2022-09-28T04:36:22;1.55;;;0.75;;
67997;SDS011;54773;53.388;-1.504;2022-09-28T04:38:52;3.55;;;0.80;;
67997;SDS011;54773;53.388;-1.504;2022-09-28T04:41:17;1.42;;;0.75;;
67997;SDS011;54773;53.388;-1.504;2022-09-28T04:43:47;2.42;;;0.80;;
67997;SDS011;54773;53.388;-1.504;2022-09-28T04:46:13;2.15;;;0.77;;
67997;SDS011;54773;53.388;-1.504;2022-09-28T04:48:38;1.85;;;0.93;;
67997;SDS011;54773;53.388;-1.504;2022-09-28T04:51:05;2.78;;;1.00;;
67997;SDS011;54773;53.388;-1.504;2022-09-28T04:53:31;3.15;;;0.90;;
67997;SDS011;54773;53.388;-1.504;2022-09-28T04:56:02;2.88;;;1.08;;
67997;SDS011;54773;53.388;-1.504;2022-09-28T04:58:30;4.03;;;1.10;;
67997;SDS011;54773;53.388;-1.504;2022-09-28T05:00:57;2.55;;;1.00;;
67997;SDS011;54773;53.388;-1.504;2022-09-28T05:03:23;4.10;;;1.00;;
67997;SDS011;54773;53.388;-1.504;2022-09-28T05:05:49;2.38;;;0.90;;
67997;SDS011;54773;53.388;-1.504;2022-09-28T05:08:15;3.30;;;0.90;;
67997;SDS011;54773;53.388;-1.504;2022-09-28T05:10:41;2.97;;;0.80;;
67997;SDS011;54773;53.388;-1.504;2022-09-28T05:13:07;5.30;;;1.00;;
67997;SDS011;54773;53.388;-1.504;2022-09-28T05:15:36;2.78;;;1.00;;
67997;SDS011;54773;53.388;-1.504;2022-09-28T05:18:03;3.45;;;1.20;;
67997;SDS011;54773;53.388;-1.504;2022-09-28T05:20:38;2.72;;;0.80;;
67997;SDS011;54773;53.388;-1.504;2022-09-28T05:23:04;2.53;;;1.10;;
67997;SDS011;54773;53.388;-1.504;2022-09-28T05:25:30;4.90;;;0.90;;
67997;SDS011;54773;53.388;-1.504;2022-09-28T05:27:55;2.63;;;1.00;;
67997;SDS011;54773;53.388;-1.504;2022-09-28T05:30:22;2.00;;;0.90;;
67997;SDS011;54773;53.388;-1.504;2022-09-28T05:32:48;2.63;;;0.80;;
67997;SDS011;54773;53.388;-1.504;2022-09-28T05:35:17;3.08;;;0.90;;
67997;SDS011;54773;53.388;-1.504;2022-09-28T05:37:42;4.55;;;1.10;;
67997;SDS011;54773;53.388;-1.504;2022-09-28T05:40:14;3.75;;;1.67;;
67997;SDS011;54773;53.388;-1.504;2022-09-28T05:42:40;1.98;;;0.77;;
67997;SDS011;54773;53.388;-1.504;2022-09-28T05:45:07;3.80;;;1.00;;
67997;SDS011;54773;53.388;-1.504;2022-09-28T05:47:37;4.63;;;1.00;;
67997;SDS011;54773;53.388;-1.504;2022-09-28T05:50:04;3.58;;;1.00;;
67997;SDS011;54773;53.388;-1.504;2022-09-28T05:52:31;3.78;;;0.93;;
67997;SDS011;54773;53.388;-1.504;2022-09-28T05:54:56;1.85;;;0.88;;
67997;SDS011;54773;53.388;-1.504;2022-09-28T05:57:22;2.53;;;0.88;;
67997;SDS011;54773;53.388;-1.504;2022-09-28T05:59:47;4.63;;;1.00;;
67997;SDS011;54773;53.388;-1.504;2022-09-28T06:02:13;4.10;;;1.05;;
67997;SDS011;54773;53.388;-1.504;2022-09-28T06:04:38;4.05;;;1.00;;
67997;SDS011;54773;53.388;-1.504;2022-09-28T06:07:04;2.50;;;1.00;;
67997;SDS011;54773;53.388;-1.504;2022-09-28T06:09:29;2.80;;;0.90;;
67997;SDS011;54773;53.388;-1.504;2022-09-28T06:11:56;4.10;;;1.30;;
67997;SDS011;54773;53.388;-1.504;2022-09-28T06:14:22;1.65;;;0.80;;
67997;SDS011;54773;53.388;-1.504;2022-09-28T06:16:48;4.13;;;0.90;;
67997;SDS011;54773;53.388;-1.504;2022-09-28T06:19:14;2.40;;;0.73;;
67997;SDS011;54773;53.388;-1.504;2022-09-28T06:21:39;2.22;;;0.95;;
67997;SDS011;54773;53.388;-1.504;2022-09-28T06:24:05;2.63;;;0.93;;
67997;SDS011;54773;53.388;-1.504;2022-09-28T06:26:31;4.97;;;1.08;;
67997;SDS011;54773;53.388;-1.504;2022-09-28T06:28:57;4.75;;;1.10;;
67997;SDS011;54773;53.388;-1.504;2022-09-28T06:31:25;3.13;;;0.85;;
67997;SDS011;54773;53.388;-1.504;2022-09-28T06:33:52;2.40;;;1.02;;
67997;SDS011;54773;53.388;-1.504;2022-09-28T06:36:24;1.92;;;0.82;;
67997;SDS011;54773;53.388;-1.504;2022-09-28T06:38:51;3.55;;;1.00;;
67997;SDS011;54773;53.388;-1.504;2022-09-28T06:41:18;3.80;;;1.10;;
67997;SDS011;54773;53.388;-1.504;2022-09-28T06:43:46;2.60;;;0.93;;
67997;SDS011;54773;53.388;-1.504;2022-09-28T06:46:12;1.92;;;0.77;;
67997;SDS011;54773;53.388;-1.504;2022-09-28T06:48:39;2.83;;;1.00;;
67997;SDS011;54773;53.388;-1.504;2022-09-28T06:51:05;2.05;;;0.90;;
67997;SDS011;54773;53.388;-1.504;2022-09-28T06:53:31;4.28;;;1.20;;
67997;SDS011;54773;53.388;-1.504;2022-09-28T06:55:57;2.05;;;0.80;;
67997;SDS011;54773;53.388;-1.504;2022-09-28T06:58:22;2.35;;;0.88;;
67997;SDS011;54773;53.388;-1.504;2022-09-28T07:00:49;2.53;;;0.82;;
67997;SDS011;54773;53.388;-1.504;2022-09-28T07:03:18;2.53;;;0.90;;
67997;SDS011;54773;53.388;-1.504;2022-09-28T07:05:46;3.85;;;0.90;;
67997;SDS011;54773;53.388;-1.504;2022-09-28T07:08:13;4.13;;;1.02;;
67997;SDS011;54773;53.388;-1.504;2022-09-28T07:10:43;1.88;;;0.70;;
67997;SDS011;54773;53.388;-1.504;2022-09-28T07:13:11;3.50;;;1.10;;
67997;SDS011;54773;53.388;-1.504;2022-09-28T07:15:37;4.43;;;1.08;;
67997;SDS011;54773;53.388;-1.504;2022-09-28T07:18:05;4.43;;;1.27;;
67997;SDS011;54773;53.388;-1.504;2022-09-28T07:20:33;2.72;;;0.90;;
67997;SDS011;54773;53.388;-1.504;2022-09-28T07:23:00;3.50;;;1.10;;
67997;SDS011;54773;53.388;-1.504;2022-09-28T07:25:27;1.88;;;0.80;;
67997;SDS011;54773;53.388;-1.504;2022-09-28T07:28:00;3.33;;;0.80;;
67997;SDS011;54773;53.388;-1.504;2022-09-28T07:30:28;2.53;;;0.90;;
67997;SDS011;54773;53.388;-1.504;2022-09-28T07:33:00;3.55;;;1.15;;
67997;SDS011;54773;53.388;-1.504;2022-09-28T07:35:27;3.92;;;1.00;;
67997;SDS011;54773;53.388;-1.504;2022-09-28T07:37:59;2.78;;;0.90;;
67997;SDS011;54773;53.388;-1.504;2022-09-28T07:40:30;2.85;;;1.00;;
67997;SDS011;54773;53.388;-1.504;2022-09-28T07:43:15;4.20;;;1.05;;
67997;SDS011;54773;53.388;-1.504;2022-09-28T07:45:45;1.88;;;0.95;;
67997;SDS011;54773;53.388;-1.504;2022-09-28T07:48:12;1.75;;;0.80;;
67997;SDS011;54773;53.388;-1.504;2022-09-28T07:50:48;2.72;;;1.00;;
67997;SDS011;54773;53.388;-1.504;2022-09-28T07:53:17;2.20;;;0.85;;
67997;SDS011;54773;53.388;-1.504;2022-09-28T07:55:43;3.92;;;1.00;;
67997;SDS011;54773;53.388;-1.504;2022-09-28T07:58:18;2.58;;;1.00;;
67997;SDS011;54773;53.388;-1.504;2022-09-28T08:00:45;2.80;;;0.90;;
67997;SDS011;54773;53.388;-1.504;2022-09-28T08:03:13;1.42;;;0.73;;
67997;SDS011;54773;53.388;-1.504;2022-09-28T08:05:39;2.90;;;0.80;;
67997;SDS011;54773;53.388;-1.504;2022-09-28T08:08:05;2.15;;;0.77;;
67997;SDS011;54773;53.388;-1.504;2022-09-28T08:10:31;2.67;;;0.88;;
67997;SDS011;54773;53.388;-1.504;2022-09-28T08:12:58;2.10;;;0.70;;
67997;SDS011;54773;53.388;-1.504;2022-09-28T08:15:27;2.15;;;0.65;;
67997;SDS011;54773;53.388;-1.504;2022-09-28T08:18:00;2.85;;;0.98;;
67997;SDS011;54773;53.388;-1.504;2022-09-28T08:20:25;3.08;;;0.80;;
67997;SDS011;54773;53.388;-1.504;2022-09-28T08:23:09;1.70;;;0.70;;
67997;SDS011;54773;53.388;-1.504;2022-09-28T08:25:36;2.53;;;0.63;;
67997;SDS011;54773;53.388;-1.504;2022-09-28T08:28:05;4.53;;;0.93;;
67997;SDS011;54773;53.388;-1.504;2022-09-28T08:30:34;3.15;;;0.75;;
67997;SDS011;54773;53.388;-1.504;2022-09-28T08:32:59;2.25;;;0.80;;
67997;SDS011;54773;53.388;-1.504;2022-09-28T08:35:25;2.45;;;0.80;;
67997;SDS011;54773;53.388;-1.504;2022-09-28T08:37:51;2.53;;;0.85;;
67997;SDS011;54773;53.388;-1.504;2022-09-28T08:40:22;2.03;;;0.70;;
67997;SDS011;54773;53.388;-1.504;2022-09-28T08:42:49;1.98;;;0.75;;
67997;SDS011;54773;53.388;-1.504;2022-09-28T08:45:20;2.97;;;0.88;;
67997;SDS011;54773;53.388;-1.504;2022-09-28T08:48:02;3.05;;;0.85;;
67997;SDS011;54773;53.388;-1.504;2022-09-28T08:50:57;2.42;;;0.80;;
67997;SDS011;54773;53.388;-1.504;2022-09-28T08:53:42;3.42;;;0.68;;
67997;SDS011;54773;53.388;-1.504;2022-09-28T08:56:37;2.35;;;0.80;;
67997;SDS011;54773;53.388;-1.504;2022-09-28T08:59:02;2.10;;;0.70;;
67997;SDS011;54773;53.388;-1.504;2022-09-28T09:01:36;2.25;;;0.75;;
67997;SDS011;54773;53.388;-1.504;2022-09-28T09:04:04;2.25;;;0.70;;
67997;SDS011;54773;53.388;-1.504;2022-09-28T09:14:26;2.97;;;0.90;;
67997;SDS011;54773;53.388;-1.504;2022-09-28T09:19:54;3.65;;;0.90;;
67997;SDS011;54773;53.388;-1.504;2022-09-28T09:22:35;3.47;;;1.00;;
67997;SDS011;54773;53.388;-1.504;2022-09-28T09:42:19;3.20;;;0.93;;
67997;SDS011;54773;53.388;-1.504;2022-09-28T09:47:24;1.27;;;0.70;;
67997;SDS011;54773;53.388;-1.504;2022-09-28T09:50:00;2.92;;;0.90;;
67997;SDS011;54773;53.388;-1.504;2022-09-28T09:52:33;1.60;;;0.70;;
67997;SDS011;54773;53.388;-1.504;2022-09-28T09:58:50;2.15;;;0.70;;
67997;SDS011;54773;53.388;-1.504;2022-09-28T10:00:53;2.95;;;0.80;;
67997;SDS011;54773;53.388;-1.504;2022-09-28T10:03:26;2.40;;;0.80;;
67997;SDS011;54773;53.388;-1.504;2022-09-28T10:05:54;2.08;;;0.85;;
67997;SDS011;54773;53.388;-1.504;2022-09-28T10:08:23;2.70;;;1.00;;
67997;SDS011;54773;53.388;-1.504;2022-09-28T10:11:01;3.53;;;1.38;;
67997;SDS011;54773;53.388;-1.504;2022-09-28T10:13:31;4.13;;;1.10;;
67997;SDS011;54773;53.388;-1.504;2022-09-28T10:15:58;2.45;;;0.77;;
67997;SDS011;54773;53.388;-1.504;2022-09-28T10:18:23;4.07;;;1.10;;
67997;SDS011;54773;53.388;-1.504;2022-09-28T10:20:50;4.65;;;1.00;;
67997;SDS011;54773;53.388;-1.504;2022-09-28T10:23:34;2.90;;;0.98;;
67997;SDS011;54773;53.388;-1.504;2022-09-28T10:26:11;2.83;;;1.10;;
67997;SDS011;54773;53.388;-1.504;2022-09-28T10:33:59;2.08;;;0.80;;
67997;SDS011;54773;53.388;-1.504;2022-09-28T10:36:24;2.13;;;0.75;;
67997;SDS011;54773;53.388;-1.504;2022-09-28T10:38:50;2.53;;;0.80;;
67997;SDS011;54773;53.388;-1.504;2022-09-28T10:41:16;3.25;;;0.95;;
67997;SDS011;54773;53.388;-1.504;2022-09-28T10:43:53;3.30;;;1.52;;
67997;SDS011;54773;53.388;-1.504;2022-09-28T10:46:30;3.30;;;1.02;;
67997;SDS011;54773;53.388;-1.504;2022-09-28T10:48:57;3.38;;;0.93;;
67997;SDS011;54773;53.388;-1.504;2022-09-28T10:51:41;3.95;;;0.88;;
67997;SDS011;54773;53.388;-1.504;2022-09-28T10:54:13;1.98;;;0.80;;
67997;SDS011;54773;53.388;-1.504;2022-09-28T10:56:42;5.07;;;0.93;;
67997;SDS011;54773;53.388;-1.504;2022-09-28T10:59:21;3.45;;;0.90;;
67997;SDS011;54773;53.388;-1.504;2022-09-28T11:01:56;2.42;;;1.10;;
67997;SDS011;54773;53.388;-1.504;2022-09-28T11:04:25;1.60;;;0.68;;
67997;SDS011;54773;53.388;-1.504;2022-09-28T11:06:52;3.17;;;0.90;;
67997;SDS011;54773;53.388;-1.504;2022-09-28T11:09:30;2.63;;;0.82;;
67997;SDS011;54773;53.388;-1.504;2022-09-28T11:11:57;3.20;;;0.80;;
67997;SDS011;54773;53.388;-1.504;2022-09-28T11:14:30;3.15;;;0.80;;
67997;SDS011;54773;53.388;-1.504;2022-09-28T11:17:14;1.77;;;0.60;;
67997;SDS011;54773;53.388;-1.504;2022-09-28T11:19:42;1.95;;;0.50;;
67997;SDS011;54773;53.388;-1.504;2022-09-28T11:22:21;3.45;;;0.90;;
67997;SDS011;54773;53.388;-1.504;2022-09-28T11:24:48;2.15;;;0.63;;
67997;SDS011;54773;53.388;-1.504;2022-09-28T11:27:18;2.67;;;0.60;;
67997;SDS011;54773;53.388;-1.504;2022-09-28T11:29:50;3.30;;;0.77;;
67997;SDS011;54773;53.388;-1.504;2022-09-28T11:32:20;2.55;;;0.75;;
67997;SDS011;54773;53.388;-1.504;2022-09-28T11:34:49;1.27;;;0.50;;
67997;SDS011;54773;53.388;-1.504;2022-09-28T11:47:58;2.33;;;1.00;;
67997;SDS011;54773;53.388;-1.504;2022-09-28T11:55:54;2.22;;;0.70;;
67997;SDS011;54773;53.388;-1.504;2022-09-28T11:58:32;1.83;;;0.60;;
67997;SDS011;54773;53.388;-1.504;2022-09-28T12:03:54;1.95;;;0.50;;
67997;SDS011;54773;53.388;-1.504;2022-09-28T12:06:26;2.42;;;0.95;;
67997;SDS011;54773;53.388;-1.504;2022-09-28T12:09:01;3.13;;;0.95;;
67997;SDS011;54773;53.388;-1.504;2022-09-28T12:11:34;2.03;;;0.80;;
67997;SDS011;54773;53.388;-1.504;2022-09-28T12:14:01;1.23;;;0.60;;
67997;SDS011;54773;53.388;-1.504;2022-09-28T12:16:52;2.45;;;0.63;;
67997;SDS011;54773;53.388;-1.504;2022-09-28T12:22:33;2.67;;;0.80;;
67997;SDS011;54773;53.388;-1.504;2022-09-28T12:25:01;2.83;;;0.77;;
67997;SDS011;54773;53.388;-1.504;2022-09-28T12:27:42;2.05;;;0.80;;
67997;SDS011;54773;53.388;-1.504;2022-09-28T12:32:48;2.25;;;0.77;;
67997;SDS011;54773;53.388;-1.504;2022-09-28T12:35:18;1.70;;;0.70;;
67997;SDS011;54773;53.388;-1.504;2022-09-28T12:46:46;0.88;;;0.32;;
67997;SDS011;54773;53.388;-1.504;2022-09-28T12:52:34;1.40;;;0.40;;
67997;SDS011;54773;53.388;-1.504;2022-09-28T13:09:17;1.98;;;0.80;;
67997;SDS011;54773;53.388;-1.504;2022-09-28T13:23:10;2.28;;;0.60;;
67997;SDS011;54773;53.388;-1.504;2022-09-28T13:25:40;1.23;;;0.45;;
67997;SDS011;54773;53.388;-1.504;2022-09-28T13:28:11;1.08;;;0.43;;
67997;SDS011;54773;53.388;-1.504;2022-09-28T13:30:42;0.98;;;0.40;;
67997;SDS011;54773;53.388;-1.504;2022-09-28T13:33:12;1.55;;;0.38;;
67997;SDS011;54773;53.388;-1.504;2022-09-28T13:35:41;1.35;;;0.30;;
67997;SDS011;54773;53.388;-1.504;2022-09-28T13:57:50;3.17;;;0.70;;
67997;SDS011;54773;53.388;-1.504;2022-09-28T14:06:40;1.27;;;0.40;;
67997;SDS011;54773;53.388;-1.504;2022-09-28T14:14:59;1.23;;;0.57;;
67997;SDS011;54773;53.388;-1.504;2022-09-28T14:20:03;0.77;;;0.43;;
67997;SDS011;54773;53.388;-1.504;2022-09-28T14:23:18;0.85;;;0.40;;
67997;SDS011;54773;53.388;-1.504;2022-09-28T14:31:44;2.72;;;0.77;;
67997;SDS011;54773;53.388;-1.504;2022-09-28T14:34:30;2.47;;;0.70;;
67997;SDS011;54773;53.388;-1.504;2022-09-28T14:37:00;1.50;;;0.60;;
67997;SDS011;54773;53.388;-1.504;2022-09-28T14:39:46;2.08;;;0.60;;
67997;SDS011;54773;53.388;-1.504;2022-09-28T14:42:30;2.33;;;0.70;;
67997;SDS011;54773;53.388;-1.504;2022-09-28T14:47:43;1.83;;;0.57;;
67997;SDS011;54773;53.388;-1.504;2022-09-28T14:50:29;4.15;;;0.80;;
67997;SDS011;54773;53.388;-1.504;2022-09-28T14:52:56;0.88;;;0.40;;
67997;SDS011;54773;53.388;-1.504;2022-09-28T14:55:33;1.38;;;0.43;;
67997;SDS011;54773;53.388;-1.504;2022-09-28T14:58:09;3.35;;;0.45;;
67997;SDS011;54773;53.388;-1.504;2022-09-28T15:00:53;1.38;;;0.52;;
67997;SDS011;54773;53.388;-1.504;2022-09-28T15:03:41;1.80;;;0.40;;
67997;SDS011;54773;53.388;-1.504;2022-09-28T15:06:13;1.85;;;0.60;;
67997;SDS011;54773;53.388;-1.504;2022-09-28T15:08:40;1.20;;;0.40;;
67997;SDS011;54773;53.388;-1.504;2022-09-28T15:11:21;0.90;;;0.40;;
67997;SDS011;54773;53.388;-1.504;2022-09-28T15:13:49;2.42;;;0.60;;
67997;SDS011;54773;53.388;-1.504;2022-09-28T15:16:21;1.33;;;0.47;;
67997;SDS011;54773;53.388;-1.504;2022-09-28T15:21:33;0.82;;;0.35;;
67997;SDS011;54773;53.388;-1.504;2022-09-28T15:24:22;0.98;;;0.40;;
67997;SDS011;54773;53.388;-1.504;2022-09-28T15:26:50;1.90;;;0.60;;
67997;SDS011;54773;53.388;-1.504;2022-09-28T15:29:21;0.93;;;0.50;;
67997;SDS011;54773;53.388;-1.504;2022-09-28T15:31:53;1.50;;;0.50;;
67997;SDS011;54773;53.388;-1.504;2022-09-28T15:37:23;3.00;;;0.65;;
67997;SDS011;54773;53.388;-1.504;2022-09-28T15:39:53;0.55;;;0.32;;
67997;SDS011;54773;53.388;-1.504;2022-09-28T15:42:22;2.28;;;0.60;;
67997;SDS011;54773;53.388;-1.504;2022-09-28T15:44:58;1.27;;;0.40;;
67997;SDS011;54773;53.388;-1.504;2022-09-28T15:47:28;1.83;;;0.50;;
67997;SDS011;54773;53.388;-1.504;2022-09-28T15:50:06;1.15;;;0.40;;
67997;SDS011;54773;53.388;-1.504;2022-09-28T15:52:53;0.77;;;0.30;;
67997;SDS011;54773;53.388;-1.504;2022-09-28T15:55:28;1.70;;;0.40;;
67997;SDS011;54773;53.388;-1.504;2022-09-28T15:58:06;1.48;;;0.40;;
67997;SDS011;54773;53.388;-1.504;2022-09-28T16:00:45;1.40;;;0.50;;
67997;SDS011;54773;53.388;-1.504;2022-09-28T16:06:08;2.80;;;0.50;;
67997;SDS011;54773;53.388;-1.504;2022-09-28T16:16:35;1.73;;;0.57;;
67997;SDS011;54773;53.388;-1.504;2022-09-28T16:19:02;0.95;;;0.38;;
67997;SDS011;54773;53.388;-1.504;2022-09-28T16:21:41;1.73;;;0.38;;
67997;SDS011;54773;53.388;-1.504;2022-09-28T16:24:17;1.23;;;0.40;;
67997;SDS011;54773;53.388;-1.504;2022-09-28T16:29:35;0.80;;;0.40;;
67997;SDS011;54773;53.388;-1.504;2022-09-28T16:37:35;0.85;;;0.47;;
67997;SDS011;54773;53.388;-1.504;2022-09-28T16:40:01;1.10;;;0.50;;
67997;SDS011;54773;53.388;-1.504;2022-09-28T16:42:26;2.72;;;0.55;;
67997;SDS011;54773;53.388;-1.504;2022-09-28T16:44:52;2.17;;;0.45;;
67997;SDS011;54773;53.388;-1.504;2022-09-28T16:47:20;1.35;;;0.52;;
67997;SDS011;54773;53.388;-1.504;2022-09-28T16:49:47;1.67;;;0.47;;
67997;SDS011;54773;53.388;-1.504;2022-09-28T16:52:13;2.00;;;0.60;;
67997;SDS011;54773;53.388;-1.504;2022-09-28T16:55:00;1.13;;;0.50;;
67997;SDS011;54773;53.388;-1.504;2022-09-28T16:57:42;1.80;;;0.85;;
67997;SDS011;54773;53.388;-1.504;2022-09-28T17:00:13;2.63;;;0.80;;
67997;SDS011;54773;53.388;-1.504;2022-09-28T17:02:40;1.58;;;0.70;;
67997;SDS011;54773;53.388;-1.504;2022-09-28T17:05:05;2.65;;;0.70;;
67997;SDS011;54773;53.388;-1.504;2022-09-28T17:07:32;2.75;;;0.93;;
67997;SDS011;54773;53.388;-1.504;2022-09-28T17:09:58;2.38;;;0.75;;
67997;SDS011;54773;53.388;-1.504;2022-09-28T17:12:24;1.52;;;0.70;;
67997;SDS011;54773;53.388;-1.504;2022-09-28T17:14:53;5.47;;;1.00;;
67997;SDS011;54773;53.388;-1.504;2022-09-28T17:17:18;2.75;;;0.90;;
67997;SDS011;54773;53.388;-1.504;2022-09-28T17:19:44;1.40;;;0.70;;
67997;SDS011;54773;53.388;-1.504;2022-09-28T17:22:09;2.42;;;0.77;;
67997;SDS011;54773;53.388;-1.504;2022-09-28T17:24:35;3.92;;;0.88;;
67997;SDS011;54773;53.388;-1.504;2022-09-28T17:27:01;2.40;;;0.70;;
67997;SDS011;54773;53.388;-1.504;2022-09-28T17:29:27;2.33;;;0.88;;
67997;SDS011;54773;53.388;-1.504;2022-09-28T17:31:53;2.03;;;0.80;;
67997;SDS011;54773;53.388;-1.504;2022-09-28T17:34:19;3.80;;;1.40;;
67997;SDS011;54773;53.388;-1.504;2022-09-28T17:36:44;3.10;;;0.90;;
67997;SDS011;54773;53.388;-1.504;2022-09-28T17:39:11;3.45;;;0.90;;
67997;SDS011;54773;53.388;-1.504;2022-09-28T17:41:37;3.00;;;1.00;;
67997;SDS011;54773;53.388;-1.504;2022-09-28T17:44:04;4.22;;;0.80;;
67997;SDS011;54773;53.388;-1.504;2022-09-28T17:46:41;2.80;;;0.90;;
67997;SDS011;54773;53.388;-1.504;2022-09-28T17:49:12;3.00;;;1.00;;
67997;SDS011;54773;53.388;-1.504;2022-09-28T17:51:38;2.60;;;1.00;;
67997;SDS011;54773;53.388;-1.504;2022-09-28T17:54:04;4.32;;;1.77;;
67997;SDS011;54773;53.388;-1.504;2022-09-28T17:56:31;4.65;;;1.60;;
67997;SDS011;54773;53.388;-1.504;2022-09-28T17:59:01;4.88;;;1.50;;
67997;SDS011;54773;53.388;-1.504;2022-09-28T18:01:31;6.00;;;1.67;;
67997;SDS011;54773;53.388;-1.504;2022-09-28T18:04:00;4.93;;;1.80;;
67997;SDS011;54773;53.388;-1.504;2022-09-28T18:06:27;3.10;;;1.20;;
67997;SDS011;54773;53.388;-1.504;2022-09-28T18:08:53;2.85;;;1.10;;
67997;SDS011;54773;53.388;-1.504;2022-09-28T18:11:19;2.38;;;1.10;;
67997;SDS011;54773;53.388;-1.504;2022-09-28T18:13:45;3.15;;;1.27;;
67997;SDS011;54773;53.388;-1.504;2022-09-28T18:16:11;3.90;;;1.05;;
67997;SDS011;54773;53.388;-1.504;2022-09-28T18:18:37;3.38;;;1.10;;